1867 Tropical Storm NOT_NAMED (1867223N24278)


IBTrACS version v04r00. Visit IBTrACS website for data access.
Please direct all questions to the IBTrACS Q and A forum

Storm track - Intensity - Wind Radii - Intensity Data - Source Data - All data

Summary Information

Storm ID 1867223N24278
Start Aug 10 12Z
Landfall Aug 13 21Z
Max Intensity 45 kt (Aug 12 00Z)
End Aug 18 12Z
ATCF IDs
Track status Best track data.

Storm track plot

Map of storm track

Intensity plots

Map of storm track

Radial wind information

No radial wind information for this storm


Position and Intensity Table

BASIN ISO_TIME_________ NATURE LAT LON MLC WIND
degrees north degrees east kts
NA 1867-08-10 12:00:00 TS 24.00 -82.50 30
NA 15:00:00 TS 24.16 -82.50 30
NA 18:00:00 TS 24.30 -82.50 30
NA 21:00:00 TS 24.40 -82.50 30
NA 1867-08-11 00:00:00 TS 24.50 -82.50 30
NA 03:00:00 TS 24.65 -82.50 30
NA 06:00:00 TS 24.80 -82.50 30
NA 09:00:00 TS 24.88 -82.45 32
NA 12:00:00 TS 25.00 -82.50 35
NA 15:00:00 TS 25.24 -82.80 37
NA 18:00:00 TS 25.50 -83.20 40
NA 21:00:00 TS 25.70 -83.50 42
NA 1867-08-12 00:00:00 TS 25.90 -83.80 45
NA 03:00:00 TS 26.15 -84.14 42
NA 06:00:00 TS 26.40 -84.50 40
NA 09:00:00 TS 26.59 -84.87 37
NA 12:00:00 TS 26.80 -85.20 35
NA 15:00:00 TS 27.13 -85.42 35
NA 18:00:00 TS 27.50 -85.60 35
NA 21:00:00 TS 27.85 -85.83 35
NA 1867-08-13 00:00:00 TS 28.20 -86.00 35
NA 03:00:00 TS 28.56 -86.03 35
NA 06:00:00 TS 28.90 -86.00 35
NA 09:00:00 TS 29.21 -86.03 35
NA 12:00:00 TS 29.50 -86.00 35
NA 15:00:00 TS 29.76 -85.84 32
NA 18:00:00 TS 30.00 -85.60 30
NA 21:00:00 TS 30.25 -85.35 30
NA 1867-08-14 00:00:00 TS 30.50 -85.00 30
NA 03:00:00 TS 30.73 -84.49 30
NA 06:00:00 TS 31.00 -83.90 30
NA 09:00:00 TS 31.38 -83.31 30
NA 12:00:00 TS 31.80 -82.70 30
NA 15:00:00 TS 32.19 -82.10 30
NA 18:00:00 TS 32.60 -81.50 30
NA 21:00:00 TS 33.05 -80.90 32
NA 1867-08-15 00:00:00 TS 33.50 -80.30 35
NA 03:00:00 TS 33.90 -79.70 35
NA 06:00:00 TS 34.30 -79.10 35
NA 09:00:00 TS 34.75 -78.44 35
NA 12:00:00 TS 35.20 -77.90 35
NA 15:00:00 TS 35.58 -77.63 32
NA 18:00:00 TS 36.00 -77.50 30
NA 21:00:00 TS 36.58 -77.35 30
NA 1867-08-16 00:00:00 TS 37.20 -77.20 30
NA 03:00:00 TS 37.76 -77.00 30
NA 06:00:00 TS 38.30 -76.80 30
NA 09:00:00 TS 38.85 -76.66 30
NA 12:00:00 TS 39.40 -76.50 30
NA 15:00:00 TS 40.01 -76.28 30
NA 18:00:00 ET 40.50 -76.00 30
NA 21:00:00 ET 40.70 -75.66 30
NA 1867-08-17 00:00:00 ET 40.80 -75.30 30
NA 03:00:00 ET 41.00 -74.94 30
NA 06:00:00 ET 41.20 -74.60 30
NA 09:00:00 ET 41.28 -74.36 30
NA 12:00:00 ET 41.50 -74.00 30
NA 15:00:00 ET 42.08 -73.32 30
NA 18:00:00 ET 42.80 -72.50 30
NA 21:00:00 ET 43.40 -71.75 30
NA 1867-08-18 00:00:00 ET 44.00 -71.00 30
NA 03:00:00 ET 44.65 -70.25 30
NA 06:00:00 ET 45.30 -69.50 30
NA 09:00:00 ET 45.91 -68.75 30
NA 12:00:00 ET 46.50 -68.00 30

Source Information

Agency Information
USA
TOKYO
CMA
HKO
NEWDELHI
REUNION
BOM
NADI
WELLINGTON
DS824
TD9636
TD9635
NEUMANN
MLC

All available IBTrACS Data

SEASON BASIN SUBBASIN ISO_TIME_________ NATURE LAT LON DIST2LAND LANDFALL IFLAG USA SSHS MLC LAT MLC LON MLC CLASS MLC WIND STORM SPEED STORM DIR
Year degrees north degrees east km km 1 degrees north degrees east kts kts degrees
1867 NA NA 1867-08-10 12:00:00 TS 24.00 -82.50 100 100 _____________O -1 24.00 -82.50 TD 30 3 5
1867 NA NA 15:00:00 TS 24.16 -82.50 122 122 _____________P -1 24.16 -82.50 TD 30 3 0
1867 NA NA 18:00:00 TS 24.30 -82.50 134 134 _____________O -1 24.30 -82.50 TD 30 2 0
1867 NA NA 21:00:00 TS 24.40 -82.50 145 145 _____________P -1 24.40 -82.50 TD 30 2 8
1867 NA NA 1867-08-11 00:00:00 TS 24.50 -82.50 152 147 _____________O -1 24.50 -82.50 TD 30 3 2
1867 NA GM 03:00:00 TS 24.65 -82.50 142 138 _____________P -1 24.65 -82.50 TD 30 3 0
1867 NA GM 06:00:00 TS 24.80 -82.50 138 125 _____________O -1 24.80 -82.50 TD 30 2 8
1867 NA GM 09:00:00 TS 24.88 -82.45 125 125 _____________P -1 24.88 -82.45 TD 32 2 8
1867 NA GM 12:00:00 TS 25.00 -82.50 128 127 _____________O -1 25.00 -82.50 TS 35 5 317
1867 NA GM 15:00:00 TS 25.24 -82.80 135 129 _____________P -1 25.24 -82.80 TS 37 8 308
1867 NA GM 18:00:00 TS 25.50 -83.20 155 155 _____________O -1 25.50 -83.20 TS 40 8 306
1867 NA GM 21:00:00 TS 25.70 -83.50 171 170 _____________P -1 25.70 -83.50 TS 42 7 306
1867 NA GM 1867-08-12 00:00:00 TS 25.90 -83.80 180 180 _____________O -1 25.90 -83.80 TS 45 7 308
1867 NA GM 03:00:00 TS 26.15 -84.14 195 195 _____________P -1 26.15 -84.14 TS 42 8 309
1867 NA GM 06:00:00 TS 26.40 -84.50 213 213 _____________O -1 26.40 -84.50 TS 40 8 304
1867 NA GM 09:00:00 TS 26.59 -84.87 240 240 _____________P -1 26.59 -84.87 TS 37 7 303
1867 NA GM 12:00:00 TS 26.80 -85.20 258 257 _____________O -1 26.80 -85.20 TS 35 7 318
1867 NA GM 15:00:00 TS 27.13 -85.42 262 246 _____________P -1 27.13 -85.42 TS 35 8 333
1867 NA GM 18:00:00 TS 27.50 -85.60 246 215 _____________O -1 27.50 -85.60 TS 35 8 333
1867 NA GM 21:00:00 TS 27.85 -85.83 204 177 _____________P -1 27.85 -85.83 TS 35 8 333
1867 NA GM 1867-08-13 00:00:00 TS 28.20 -86.00 177 146 _____________O -1 28.20 -86.00 TS 35 7 346
1867 NA GM 03:00:00 TS 28.56 -86.03 135 106 _____________P -1 28.56 -86.03 TS 35 7 0
1867 NA GM 06:00:00 TS 28.90 -86.00 106 80 _____________O -1 28.90 -86.00 TS 35 7 0
1867 NA GM 09:00:00 TS 29.21 -86.03 80 62 _____________P -1 29.21 -86.03 TS 35 6 1
1867 NA GM 12:00:00 TS 29.50 -86.00 62 48 _____________O -1 29.50 -86.00 TS 35 6 17
1867 NA GM 15:00:00 TS 29.76 -85.84 34 9 _____________P -1 29.76 -85.84 TS 32 6 35
1867 NA GM 18:00:00 TS 30.00 -85.60 9 0 _____________O -1 30.00 -85.60 TD 30 7 41
1867 NA NA 21:00:00 TS 30.25 -85.35 0 0 _____________P -1 30.25 -85.35 TD 30 7 46
1867 NA NA 1867-08-14 00:00:00 TS 30.50 -85.00 0 0 _____________O -1 30.50 -85.00 TD 30 9 57
1867 NA NA 03:00:00 TS 30.73 -84.49 0 0 _____________P -1 30.73 -84.49 TD 30 11 62
1867 NA NA 06:00:00 TS 31.00 -83.90 0 0 _____________O -1 31.00 -83.90 TD 30 12 57
1867 NA NA 09:00:00 TS 31.38 -83.31 0 0 _____________P -1 31.38 -83.31 TD 30 13 52
1867 NA NA 12:00:00 TS 31.80 -82.70 0 0 _____________O -1 31.80 -82.70 TD 30 13 52
1867 NA NA 15:00:00 TS 32.19 -82.10 0 0 _____________P -1 32.19 -82.10 TD 30 13 52
1867 NA NA 18:00:00 TS 32.60 -81.50 0 0 _____________O -1 32.60 -81.50 TD 30 13 50
1867 NA NA 21:00:00 TS 33.05 -80.90 0 0 _____________P -1 33.05 -80.90 TD 32 14 48
1867 NA NA 1867-08-15 00:00:00 TS 33.50 -80.30 0 0 _____________O -1 33.50 -80.30 TS 35 13 50
1867 NA NA 03:00:00 TS 33.90 -79.70 0 0 _____________P -1 33.90 -79.70 TS 35 13 51
1867 NA NA 06:00:00 TS 34.30 -79.10 0 0 _____________O -1 34.30 -79.10 TS 35 13 51
1867 NA NA 09:00:00 TS 34.75 -78.44 0 0 _____________P -1 34.75 -78.44 TS 35 13 48
1867 NA NA 12:00:00 TS 35.20 -77.90 0 0 _____________O -1 35.20 -77.90 TS 35 11 39
1867 NA NA 15:00:00 TS 35.58 -77.63 0 0 _____________P -1 35.58 -77.63 TS 32 9 22
1867 NA NA 18:00:00 TS 36.00 -77.50 0 0 _____________O -1 36.00 -77.50 TD 30 10 13
1867 NA NA 21:00:00 TS 36.58 -77.35 0 0 _____________P -1 36.58 -77.35 TD 30 12 11
1867 NA NA 1867-08-16 00:00:00 TS 37.20 -77.20 0 0 _____________O -1 37.20 -77.20 TD 30 12 13
1867 NA NA 03:00:00 TS 37.76 -77.00 0 0 _____________P -1 37.76 -77.00 TD 30 11 16
1867 NA NA 06:00:00 TS 38.30 -76.80 0 0 _____________O -1 38.30 -76.80 TD 30 11 14
1867 NA NA 09:00:00 TS 38.85 -76.66 0 0 _____________P -1 38.85 -76.66 TD 30 11 12
1867 NA NA 12:00:00 TS 39.40 -76.50 0 0 _____________O -1 39.40 -76.50 TD 30 12 14
1867 NA NA 15:00:00 TS 40.01 -76.28 0 0 _____________P -1 40.01 -76.28 TD 30 12 19
1867 NA NA 18:00:00 ET 40.50 -76.00 0 0 _____________O -1 40.50 -76.00 EX 30 8 34
1867 NA NA 21:00:00 ET 40.70 -75.66 0 0 _____________P -1 40.70 -75.66 EX 30 6 60
1867 NA NA 1867-08-17 00:00:00 ET 40.80 -75.30 0 0 _____________O -1 40.80 -75.30 EX 30 6 61
1867 NA NA 03:00:00 ET 41.00 -74.94 0 0 _____________P -1 41.00 -74.94 EX 30 7 53
1867 NA NA 06:00:00 ET 41.20 -74.60 0 0 _____________O -1 41.20 -74.60 EX 30 5 57
1867 NA NA 09:00:00 ET 41.28 -74.36 0 0 _____________P -1 41.28 -74.36 EX 30 5 56
1867 NA NA 12:00:00 ET 41.50 -74.00 0 0 _____________O -1 41.50 -74.00 EX 30 11 44
1867 NA NA 15:00:00 ET 42.08 -73.32 0 0 _____________P -1 42.08 -73.32 EX 30 17 41
1867 NA NA 18:00:00 ET 42.80 -72.50 0 0 _____________O -1 42.80 -72.50 EX 30 17 41
1867 NA NA 21:00:00 ET 43.40 -71.75 0 0 _____________P -1 43.40 -71.75 EX 30 16 42
1867 NA NA 1867-08-18 00:00:00 ET 44.00 -71.00 0 0 _____________O -1 44.00 -71.00 EX 30 16 41
1867 NA NA 03:00:00 ET 44.65 -70.25 0 0 _____________P -1 44.65 -70.25 EX 30 17 39
1867 NA NA 06:00:00 ET 45.30 -69.50 0 0 _____________O -1 45.30 -69.50 EX 30 16 40
1867 NA NA 09:00:00 ET 45.91 -68.75 0 0 _____________P -1 45.91 -68.75 EX 30 16 41
1867 NA NA 12:00:00 ET 46.50 -68.00 0 _____________O -1 46.50 -68.00 EX 30 16 42